createdAt,value
2017-05-12T00:01:02.686Z,61.50
2017-05-12T00:03:31.648Z,61.50
2017-05-12T00:06:01.734Z,61.50
2017-05-12T00:08:30.659Z,61.50
2017-05-12T00:11:01.567Z,61.50
2017-05-12T00:13:30.533Z,61.50
2017-05-12T00:15:59.548Z,61.90
2017-05-12T00:18:28.858Z,62.70
2017-05-12T00:20:57.820Z,63.60
2017-05-12T00:23:26.755Z,63.90
2017-05-12T00:25:56.854Z,65.50
2017-05-12T00:28:25.779Z,66.50
2017-05-12T00:30:54.715Z,66.70
2017-05-12T00:33:24.043Z,68.80
2017-05-12T00:35:52.999Z,68.00
2017-05-12T00:38:22.778Z,70.20
2017-05-12T00:40:52.151Z,69.60
2017-05-12T00:43:21.827Z,70.30
2017-05-12T00:45:50.821Z,69.80
2017-05-12T00:48:20.148Z,70.10
2017-05-12T00:50:49.086Z,70.00
2017-05-12T00:53:18.048Z,70.40
2017-05-12T00:55:47.343Z,70.00
2017-05-12T00:58:17.011Z,70.00
2017-05-12T01:00:45.955Z,70.00
2017-05-12T01:03:15.206Z,70.40
2017-05-12T01:05:44.182Z,69.90
2017-05-12T01:08:13.187Z,70.30
2017-05-12T01:10:42.434Z,69.80
2017-05-12T01:13:11.366Z,69.80
2017-05-12T01:15:40.314Z,70.40
2017-05-12T01:18:09.622Z,71.40
2017-05-12T01:20:38.562Z,70.50
2017-05-12T01:23:07.573Z,70.60
2017-05-12T01:25:36.867Z,71.10
2017-05-12T01:28:05.818Z,71.90
2017-05-12T01:30:34.795Z,70.80
2017-05-12T01:33:04.239Z,72.10
2017-05-12T01:35:33.192Z,70.60
2017-05-12T01:38:02.146Z,71.20
2017-05-12T01:40:32.167Z,70.80
2017-05-12T01:43:01.839Z,71.30
2017-05-12T01:45:30.855Z,71.20
2017-05-12T01:48:00.155Z,71.60
2017-05-12T01:50:29.083Z,71.50
2017-05-12T01:52:58.053Z,71.20
2017-05-12T01:55:27.444Z,71.60
2017-05-12T01:57:57.115Z,71.10
2017-05-12T02:00:26.075Z,71.70
2017-05-12T02:02:55.332Z,71.80
2017-05-12T02:05:24.310Z,72.10
2017-05-12T02:07:53.265Z,71.90
2017-05-12T02:10:22.548Z,72.20
2017-05-12T02:12:51.478Z,72.00
2017-05-12T02:15:20.421Z,71.80
2017-05-12T02:17:49.707Z,71.70
2017-05-12T02:20:19.400Z,71.80
2017-05-12T02:22:48.358Z,72.30
2017-05-12T02:25:17.692Z,71.80
2017-05-12T02:27:46.631Z,72.60
2017-05-12T02:30:15.584Z,72.30
2017-05-12T02:32:45.663Z,72.10
2017-05-12T02:35:14.659Z,72.30
2017-05-12T02:37:43.656Z,72.20
2017-05-12T02:40:12.973Z,72.30
2017-05-12T02:42:41.932Z,72.10
2017-05-12T02:45:10.981Z,72.20
2017-05-12T02:47:41.022Z,72.50
2017-05-12T02:50:09.976Z,72.40
2017-05-12T02:52:39.672Z,72.30
2017-05-12T02:55:08.995Z,71.90
2017-05-12T02:57:38.693Z,72.60
2017-05-12T03:00:08.719Z,72.10
2017-05-12T03:02:38.415Z,72.60
2017-05-12T03:05:07.347Z,72.10
2017-05-12T03:07:36.764Z,72.60
2017-05-12T03:10:05.719Z,72.40
2017-05-12T03:12:34.673Z,72.40
2017-05-12T03:15:03.908Z,71.50
2017-05-12T03:17:32.846Z,72.80
2017-05-12T03:20:01.791Z,72.20
2017-05-12T03:22:31.160Z,72.00
2017-05-12T03:25:01.063Z,72.40
2017-05-12T03:27:30.055Z,71.80
2017-05-12T03:29:59.375Z,72.10
2017-05-12T03:32:29.060Z,72.40
2017-05-12T03:34:58.014Z,71.90
2017-05-12T03:37:27.286Z,72.30
2017-05-12T03:39:56.964Z,72.40
2017-05-12T03:42:25.928Z,72.00
2017-05-12T03:44:55.215Z,72.10
2017-05-12T03:47:24.157Z,72.90
2017-05-12T03:49:53.088Z,71.80
2017-05-12T03:52:22.467Z,72.50
2017-05-12T03:54:52.203Z,72.10
2017-05-12T03:57:21.196Z,71.90
2017-05-12T03:59:50.554Z,72.20
2017-05-12T04:02:20.252Z,72.00
2017-05-12T04:04:49.204Z,72.20
2017-05-12T04:07:18.563Z,72.30
2017-05-12T04:09:48.247Z,72.20
2017-05-12T04:12:17.187Z,72.20
2017-05-12T04:14:46.447Z,72.20
2017-05-12T04:17:15.428Z,72.60
2017-05-12T04:19:44.416Z,72.10
2017-05-12T04:22:13.739Z,71.90
2017-05-12T04:24:42.681Z,72.10
2017-05-12T04:27:11.650Z,72.20
2017-05-12T04:29:41.019Z,71.80
2017-05-12T04:32:09.979Z,72.50
2017-05-12T04:34:39.005Z,71.40
2017-05-12T04:37:08.334Z,71.50
2017-05-12T04:39:37.286Z,71.50
2017-05-12T04:42:06.238Z,70.80
2017-05-12T04:44:35.476Z,70.70
2017-05-12T04:47:04.429Z,70.60
2017-05-12T04:49:33.466Z,70.40
2017-05-12T04:52:03.567Z,70.10
2017-05-12T04:54:32.531Z,70.20
2017-05-12T04:57:01.572Z,70.30
2017-05-12T04:59:31.687Z,69.30
2017-05-12T05:02:00.611Z,69.50
2017-05-12T05:04:29.555Z,70.20
2017-05-12T05:06:58.852Z,69.70
2017-05-12T05:09:27.816Z,69.00
2017-05-12T05:11:56.772Z,69.00
2017-05-12T05:14:26.862Z,68.70
2017-05-12T05:16:55.803Z,68.30
2017-05-12T05:19:24.738Z,67.80
2017-05-12T05:21:54.052Z,68.00
2017-05-12T05:24:23.000Z,68.20
2017-05-12T05:26:52.106Z,67.90
2017-05-12T05:29:21.538Z,68.40
2017-05-12T05:31:51.229Z,66.90
2017-05-12T05:34:20.254Z,67.20
2017-05-12T05:36:49.545Z,67.30
2017-05-12T05:39:19.267Z,68.20
2017-05-12T05:41:48.254Z,67.00
2017-05-12T05:44:17.534Z,69.70
2017-05-12T05:46:46.508Z,67.00
2017-05-12T05:49:15.500Z,67.30
2017-05-12T05:51:44.855Z,67.10
2017-05-12T05:54:13.798Z,67.20
2017-05-12T05:56:42.746Z,67.00
2017-05-12T05:59:12.044Z,68.10
2017-05-12T06:01:41.000Z,67.70
2017-05-12T06:04:10.729Z,67.60
2017-05-12T06:06:40.001Z,67.80
2017-05-12T06:09:08.980Z,67.90
2017-05-12T06:11:37.935Z,68.10
2017-05-12T06:14:07.448Z,68.00
2017-05-12T06:16:36.398Z,67.40
2017-05-12T06:19:05.381Z,67.30
2017-05-12T06:21:35.515Z,68.50
2017-05-12T06:24:04.510Z,68.20
2017-05-12T06:26:33.470Z,67.40
2017-05-12T06:29:02.800Z,67.50
2017-05-12T06:31:31.740Z,67.20
2017-05-12T06:34:00.930Z,65.90
2017-05-12T06:36:30.197Z,66.60
2017-05-12T06:38:59.197Z,66.50
2017-05-12T06:41:28.183Z,66.10
2017-05-12T06:43:57.540Z,65.60
2017-05-12T06:46:26.517Z,65.70
2017-05-12T06:48:55.482Z,65.90
2017-05-12T06:51:24.781Z,65.90
2017-05-12T06:53:53.721Z,66.70
2017-05-12T06:56:23.403Z,66.80
2017-05-12T06:58:52.723Z,66.40
2017-05-12T07:01:21.759Z,66.30
2017-05-12T07:03:50.719Z,66.60
2017-05-12T07:06:20.740Z,66.70
2017-05-12T07:08:50.457Z,67.70
2017-05-12T07:11:19.467Z,67.00
2017-05-12T07:13:48.822Z,67.20
2017-05-12T07:16:17.860Z,67.70
2017-05-12T07:18:47.249Z,68.80
2017-05-12T07:21:16.640Z,68.80
2017-05-12T07:23:45.640Z,69.10
2017-05-12T07:26:14.749Z,70.00
2017-05-12T07:28:44.125Z,70.00
2017-05-12T07:31:13.176Z,69.20
2017-05-12T07:33:42.182Z,68.40
2017-05-12T07:36:11.431Z,68.60
2017-05-12T07:38:40.452Z,68.40
2017-05-12T07:41:09.386Z,68.00
2017-05-12T07:43:38.629Z,68.50
2017-05-12T07:46:07.593Z,67.50
2017-05-12T07:48:36.559Z,68.30
2017-05-12T07:51:05.873Z,67.80
2017-05-12T07:53:35.557Z,68.20
2017-05-12T07:56:04.527Z,68.80
2017-05-12T07:58:33.854Z,70.10
2017-05-12T08:01:02.823Z,70.40
2017-05-12T08:03:31.774Z,70.00
2017-05-12T08:06:01.151Z,69.20
2017-05-12T08:08:30.899Z,70.20
2017-05-12T08:10:59.881Z,69.60
2017-05-12T08:13:29.260Z,68.80
2017-05-12T08:15:58.953Z,68.90
2017-05-12T08:18:27.954Z,70.40
2017-05-12T08:20:58.023Z,70.50
2017-05-12T08:23:26.977Z,69.30
2017-05-12T08:25:55.985Z,69.10
2017-05-12T08:28:25.473Z,69.50
2017-05-12T08:30:54.422Z,70.60
2017-05-12T08:33:23.413Z,70.20
2017-05-12T08:35:52.852Z,70.30
2017-05-12T08:38:21.833Z,69.30
2017-05-12T08:40:51.561Z,71.00
2017-05-12T08:43:20.792Z,72.30
2017-05-12T08:45:49.838Z,73.10
2017-05-12T08:48:19.108Z,73.20
2017-05-12T08:50:48.361Z,72.80
2017-05-12T08:53:17.306Z,71.50
2017-05-12T08:55:46.262Z,71.60
2017-05-12T08:58:15.658Z,70.80
2017-05-12T09:00:44.654Z,70.40
2017-05-12T09:03:13.630Z,70.30
2017-05-12T09:05:42.925Z,68.90
2017-05-12T09:08:11.900Z,68.20
2017-05-12T09:10:41.605Z,68.50
2017-05-12T09:13:10.938Z,69.10
2017-05-12T09:15:39.872Z,68.50
2017-05-12T09:18:08.836Z,66.10
2017-05-12T09:20:38.086Z,66.20
2017-05-12T09:23:07.784Z,65.40
2017-05-12T09:25:36.771Z,66.90
2017-05-12T09:28:06.063Z,65.90
2017-05-12T09:30:35.753Z,66.70
2017-05-12T09:33:04.834Z,64.30
2017-05-12T09:35:34.180Z,64.30
2017-05-12T09:38:03.888Z,63.80
2017-05-12T09:40:33.580Z,63.90
2017-05-12T09:43:02.902Z,64.20
2017-05-12T09:45:31.838Z,64.50
2017-05-12T09:48:00.784Z,64.10
2017-05-12T09:50:30.881Z,61.70
2017-05-12T09:52:59.890Z,64.50
2017-05-12T09:55:29.593Z,64.70
2017-05-12T09:57:59.651Z,65.10
2017-05-12T10:00:28.657Z,63.10
2017-05-12T10:02:57.615Z,63.20
2017-05-12T10:05:26.958Z,61.60
2017-05-12T10:07:56.010Z,62.80
2017-05-12T10:10:25.028Z,62.00
2017-05-12T10:12:54.514Z,60.90
2017-05-12T10:15:23.505Z,63.10
2017-05-12T10:17:52.532Z,61.60
2017-05-12T10:20:21.980Z,60.50
2017-05-12T10:22:51.710Z,59.50
2017-05-12T10:25:20.696Z,58.70
2017-05-12T10:27:50.148Z,57.00
2017-05-12T10:30:19.161Z,57.10
2017-05-12T10:32:48.140Z,57.20
2017-05-12T10:35:17.480Z,57.40
2017-05-12T10:37:46.471Z,57.50
2017-05-12T10:40:15.444Z,57.00
2017-05-12T10:42:45.542Z,57.30
2017-05-12T10:45:14.620Z,57.40
2017-05-12T10:47:43.574Z,55.40
2017-05-12T10:50:12.961Z,56.40
2017-05-12T10:52:41.901Z,56.30
2017-05-12T10:55:10.859Z,56.10
2017-05-12T10:57:40.223Z,56.10
2017-05-12T11:00:09.971Z,55.50
2017-05-12T11:02:39.020Z,56.20
2017-05-12T11:05:08.431Z,56.80
2017-05-12T11:07:37.469Z,57.70
2017-05-12T11:10:06.469Z,59.40
2017-05-12T11:12:35.816Z,57.70
2017-05-12T11:15:04.755Z,58.10
2017-05-12T11:17:33.744Z,57.50
2017-05-12T11:20:03.096Z,57.50
2017-05-12T11:22:32.060Z,56.50
2017-05-12T11:25:01.056Z,57.40
2017-05-12T11:27:30.390Z,57.90
2017-05-12T11:30:00.098Z,56.90
2017-05-12T11:32:29.816Z,57.20
2017-05-12T11:34:59.951Z,57.80
2017-05-12T11:37:28.896Z,58.00
2017-05-12T11:39:57.958Z,57.80
2017-05-12T11:42:27.275Z,57.60
2017-05-12T11:44:56.246Z,55.70
2017-05-12T11:47:25.187Z,55.90
2017-05-12T11:49:54.453Z,57.50
2017-05-12T11:52:23.514Z,56.70
2017-05-12T11:54:52.492Z,56.90
2017-05-12T11:57:21.933Z,56.20
2017-05-12T11:59:50.924Z,56.30
2017-05-12T12:02:19.884Z,55.40
2017-05-12T12:04:49.346Z,55.00
2017-05-12T12:07:18.299Z,53.80
2017-05-12T12:09:47.249Z,53.50
2017-05-12T12:12:17.373Z,52.30
2017-05-12T12:14:47.080Z,52.70
2017-05-12T12:17:16.878Z,52.40
2017-05-12T12:19:46.287Z,52.70
2017-05-12T12:22:15.278Z,51.90
2017-05-12T12:24:44.987Z,50.90
2017-05-12T12:27:15.099Z,53.20
2017-05-12T12:29:44.071Z,53.40
2017-05-12T12:32:13.226Z,52.70
2017-05-12T12:34:42.537Z,52.00
2017-05-12T12:37:11.555Z,51.90
2017-05-12T12:39:40.521Z,52.00
2017-05-12T12:42:09.784Z,51.80
2017-05-12T12:44:39.499Z,51.90
2017-05-12T12:47:08.471Z,51.80
2017-05-12T12:49:37.880Z,52.20
2017-05-12T12:52:07.635Z,51.60
2017-05-12T12:54:36.594Z,50.80
2017-05-12T12:57:06.905Z,49.40
2017-05-12T12:59:36.635Z,50.40
2017-05-12T13:02:05.607Z,50.90
2017-05-12T13:04:35.621Z,50.70
2017-05-12T13:07:05.377Z,49.50
2017-05-12T13:09:34.334Z,49.50
2017-05-12T13:12:03.640Z,50.50
2017-05-12T13:14:32.600Z,50.70
2017-05-12T13:17:01.672Z,49.20
2017-05-12T13:19:31.222Z,50.80
2017-05-12T13:22:00.951Z,50.00
2017-05-12T13:24:29.924Z,49.60
2017-05-12T13:26:59.229Z,48.70
2017-05-12T13:29:28.224Z,48.60
2017-05-12T13:31:57.231Z,47.80
2017-05-12T13:34:26.533Z,49.10
2017-05-12T13:36:55.523Z,47.90
2017-05-12T13:39:24.482Z,49.50
2017-05-12T13:41:54.503Z,47.90
2017-05-12T13:44:24.217Z,49.00
2017-05-12T13:46:53.949Z,48.60
2017-05-12T13:49:23.325Z,48.60
2017-05-12T13:51:53.020Z,48.10
2017-05-12T13:54:22.765Z,48.70
2017-05-12T13:56:52.134Z,50.10
2017-05-12T13:59:21.828Z,48.10
2017-05-12T14:01:50.875Z,47.90
2017-05-12T14:04:20.189Z,47.70
2017-05-12T14:06:49.271Z,46.70
2017-05-12T14:09:19.115Z,47.90
2017-05-12T14:11:48.648Z,46.80
2017-05-12T14:14:17.605Z,47.70
2017-05-12T14:16:46.763Z,47.20
2017-05-12T14:19:16.143Z,47.80
2017-05-12T14:21:45.183Z,48.40
2017-05-12T14:24:14.137Z,48.50
2017-05-12T14:26:43.531Z,48.90
2017-05-12T14:29:13.232Z,48.70
2017-05-12T14:31:42.944Z,48.20
2017-05-12T14:34:12.948Z,48.50
2017-05-12T14:36:41.899Z,49.40
2017-05-12T14:39:11.018Z,48.00
2017-05-12T14:41:40.475Z,48.40
2017-05-12T14:44:09.566Z,49.30
2017-05-12T14:46:38.538Z,48.60
2017-05-12T14:49:08.596Z,48.20
2017-05-12T14:51:37.631Z,48.60
2017-05-12T14:54:06.573Z,48.40
2017-05-12T14:56:36.119Z,49.40
2017-05-12T14:59:05.182Z,48.40
2017-05-12T15:01:34.176Z,48.50
2017-05-12T15:04:03.522Z,48.40
2017-05-12T15:06:33.257Z,47.80
2017-05-12T15:09:02.235Z,48.10
2017-05-12T15:11:31.619Z,48.90
2017-05-12T15:14:01.304Z,47.70
2017-05-12T15:16:30.279Z,47.60
2017-05-12T15:18:59.543Z,47.40
2017-05-12T15:21:28.501Z,47.60
2017-05-12T15:23:57.469Z,47.60
2017-05-12T15:26:26.737Z,48.30
2017-05-12T15:28:55.679Z,47.30
2017-05-12T15:31:24.684Z,47.90
2017-05-12T15:33:54.705Z,48.80
2017-05-12T15:36:24.387Z,48.70
2017-05-12T15:38:53.415Z,49.40
2017-05-12T15:41:23.723Z,50.00
2017-05-12T15:43:52.701Z,51.10
2017-05-12T15:46:21.675Z,51.00
2017-05-12T15:48:50.996Z,50.80
2017-05-12T15:51:19.986Z,51.10
2017-05-12T15:53:48.932Z,51.00
2017-05-12T15:56:18.210Z,51.90
2017-05-12T15:58:47.203Z,52.00
2017-05-12T16:01:16.224Z,52.10
2017-05-12T16:03:45.584Z,52.50
2017-05-12T16:06:15.583Z,52.30
2017-05-12T16:08:44.721Z,52.50
2017-05-12T16:11:14.087Z,53.10
2017-05-12T16:13:43.782Z,53.40
2017-05-12T16:16:12.754Z,53.10
2017-05-12T16:18:42.114Z,53.60
2017-05-12T16:21:11.135Z,52.60
2017-05-12T16:23:40.155Z,52.50
2017-05-12T16:26:09.531Z,53.00
2017-05-12T16:28:38.494Z,53.30
2017-05-12T16:31:07.459Z,53.30
2017-05-12T16:33:37.579Z,53.20
2017-05-12T16:36:07.439Z,53.70
2017-05-12T16:38:36.419Z,53.30
2017-05-12T16:41:05.778Z,53.30
2017-05-12T16:43:34.773Z,53.80
2017-05-12T16:46:04.430Z,54.60
2017-05-12T16:48:33.923Z,55.40
2017-05-12T16:51:02.904Z,56.00
2017-05-12T16:53:31.859Z,56.50
2017-05-12T16:56:02.504Z,57.10
2017-05-12T16:58:32.198Z,57.20
2017-05-12T17:01:01.710Z,57.50
2017-05-12T17:03:31.454Z,57.60
2017-05-12T17:06:00.424Z,57.80
2017-05-12T17:08:30.544Z,58.20
2017-05-12T17:10:59.567Z,58.10
2017-05-12T17:13:28.515Z,58.00
2017-05-12T17:15:57.815Z,58.30
2017-05-12T17:18:26.775Z,58.40
2017-05-12T17:20:55.764Z,58.20
2017-05-12T17:23:24.728Z,58.20
2017-05-12T17:25:53.804Z,58.80
2017-05-12T17:28:23.494Z,58.90
2017-05-12T17:30:53.206Z,58.90
2017-05-12T17:33:22.985Z,59.10
2017-05-12T17:35:52.031Z,59.10
2017-05-12T17:38:20.985Z,59.30
2017-05-12T17:40:50.298Z,58.90
2017-05-12T17:43:20.064Z,59.00
2017-05-12T17:45:49.090Z,59.20
2017-05-12T17:48:18.076Z,59.60
2017-05-12T17:50:46.997Z,60.00
2017-05-12T17:53:17.186Z,60.20
2017-05-12T17:55:46.132Z,60.50
2017-05-12T17:58:15.075Z,60.50
2017-05-12T18:00:44.111Z,60.50
2017-05-12T18:03:13.142Z,60.80
2017-05-12T18:05:42.438Z,61.20
2017-05-12T18:08:11.486Z,61.10
2017-05-12T18:10:40.455Z,61.20
2017-05-12T18:13:10.178Z,61.30
2017-05-12T18:15:39.907Z,61.20
2017-05-12T18:18:09.272Z,61.30
2017-05-12T18:20:39.002Z,62.50
2017-05-12T18:23:07.995Z,62.10
2017-05-12T18:25:37.055Z,62.30
2017-05-12T18:28:06.127Z,63.20
2017-05-12T18:30:35.599Z,65.40
2017-05-12T18:33:04.572Z,66.50
2017-05-12T18:35:33.582Z,65.90
2017-05-12T18:38:02.576Z,67.60
2017-05-12T18:40:31.604Z,71.20
2017-05-12T18:43:00.939Z,71.30
2017-05-12T18:45:30.652Z,72.10
2017-05-12T18:48:00.964Z,73.10
2017-05-12T18:50:30.714Z,74.40
2017-05-12T18:52:59.673Z,77.30
2017-05-12T18:55:29.425Z,77.00
2017-05-12T18:57:58.441Z,77.60
2017-05-12T19:00:27.857Z,77.70
2017-05-12T19:02:56.816Z,76.50
2017-05-12T19:05:25.817Z,77.00
2017-05-12T19:07:54.789Z,76.90
2017-05-12T19:10:23.837Z,77.60
2017-05-12T19:12:53.950Z,78.10
2017-05-12T19:15:22.911Z,79.00
2017-05-12T19:17:51.921Z,78.50
2017-05-12T19:20:20.917Z,78.10
2017-05-12T19:22:49.902Z,79.10
2017-05-12T19:25:19.234Z,79.70
2017-05-12T19:27:49.031Z,78.50
2017-05-12T19:30:17.995Z,78.60
2017-05-12T19:32:47.008Z,78.50
2017-05-12T19:35:16.052Z,78.30
2017-05-12T19:37:45.073Z,78.90
2017-05-12T19:40:14.118Z,78.90
2017-05-12T19:42:43.872Z,79.00
2017-05-12T19:45:13.282Z,78.90
2017-05-12T19:47:42.266Z,79.00
2017-05-12T19:50:11.362Z,80.10
2017-05-12T19:52:40.376Z,79.90
2017-05-12T19:55:09.365Z,79.20
2017-05-12T19:57:38.610Z,79.10
2017-05-12T20:00:07.583Z,79.20
2017-05-12T20:02:36.564Z,78.90
2017-05-12T20:05:06.304Z,78.60
2017-05-12T20:07:35.282Z,78.60
2017-05-12T20:10:04.627Z,79.30
2017-05-12T20:12:33.595Z,79.20
2017-05-12T20:15:02.613Z,80.30
2017-05-12T20:17:31.603Z,79.60
2017-05-12T20:20:00.565Z,80.40
2017-05-12T20:22:29.948Z,79.70
2017-05-12T20:24:58.970Z,79.00
2017-05-12T20:27:27.937Z,79.30
2017-05-12T20:29:57.009Z,80.50
2017-05-12T20:32:26.790Z,80.60
2017-05-12T20:34:55.821Z,81.50
2017-05-12T20:37:24.774Z,82.50
2017-05-12T20:39:54.092Z,80.70
2017-05-12T20:42:23.167Z,80.90
2017-05-12T20:44:52.141Z,81.10
2017-05-12T20:47:21.197Z,81.60
2017-05-12T20:49:50.918Z,81.50
2017-05-12T20:52:20.215Z,82.10
2017-05-12T20:54:49.202Z,82.50
2017-05-12T20:57:18.977Z,82.50
2017-05-12T20:59:47.964Z,81.90
2017-05-12T21:02:16.931Z,82.30
2017-05-12T21:04:46.349Z,82.40
2017-05-12T21:07:15.423Z,81.80
2017-05-12T21:09:44.528Z,81.60
2017-05-12T21:12:13.605Z,82.10
2017-05-12T21:14:42.642Z,82.10
2017-05-12T21:17:12.065Z,82.10
2017-05-12T21:19:41.768Z,82.20
2017-05-12T21:22:11.820Z,83.00
2017-05-12T21:24:40.780Z,82.10
2017-05-12T21:27:10.534Z,82.40
2017-05-12T21:29:39.561Z,82.80
2017-05-12T21:32:08.516Z,82.60
2017-05-12T21:34:37.817Z,82.60
2017-05-12T21:37:06.780Z,82.90
2017-05-12T21:39:35.738Z,82.40
2017-05-12T21:42:05.456Z,83.00
2017-05-12T21:44:34.406Z,83.20
2017-05-12T21:47:03.768Z,83.00
2017-05-12T21:49:32.798Z,83.10
2017-05-12T21:52:01.738Z,83.10
2017-05-12T21:54:30.718Z,82.20
2017-05-12T21:56:59.676Z,82.20
2017-05-12T21:59:29.139Z,82.70
2017-05-12T22:01:58.135Z,82.90
2017-05-12T22:04:27.107Z,83.50
2017-05-12T22:06:56.065Z,83.70
2017-05-12T22:09:25.032Z,84.20
2017-05-12T22:11:54.445Z,83.50
2017-05-12T22:14:23.441Z,83.60
2017-05-12T22:16:52.486Z,83.00
2017-05-12T22:19:21.474Z,83.40
2017-05-12T22:21:51.193Z,82.90
2017-05-12T22:24:21.396Z,83.20
2017-05-12T22:26:50.322Z,83.80
2017-05-12T22:29:19.302Z,83.60
2017-05-12T22:31:48.311Z,83.00
2017-05-12T22:34:18.164Z,83.50
2017-05-12T22:36:47.617Z,84.30
2017-05-12T22:39:16.773Z,84.10
2017-05-12T22:41:45.761Z,84.40
2017-05-12T22:44:14.726Z,84.40
2017-05-12T22:46:43.680Z,84.60
2017-05-12T22:49:12.661Z,84.00
2017-05-12T22:51:41.800Z,83.00
2017-05-12T22:54:11.147Z,83.10
2017-05-12T22:56:40.915Z,81.60
2017-05-12T22:59:09.866Z,81.90
2017-05-12T23:01:38.834Z,81.90
2017-05-12T23:04:07.789Z,82.30
2017-05-12T23:06:37.083Z,82.20
2017-05-12T23:09:06.057Z,82.00
2017-05-12T23:11:35.017Z,82.70
2017-05-12T23:14:04.719Z,81.50
2017-05-12T23:16:33.951Z,83.00
2017-05-12T23:19:03.311Z,83.20
2017-05-12T23:21:32.270Z,83.30
2017-05-12T23:24:01.219Z,83.50
2017-05-12T23:26:30.174Z,82.50
2017-05-12T23:28:59.177Z,82.30
2017-05-12T23:31:28.432Z,81.80
2017-05-12T23:33:57.409Z,82.50
2017-05-12T23:36:26.355Z,82.60
2017-05-12T23:38:55.311Z,82.40
2017-05-12T23:41:24.264Z,82.60
2017-05-12T23:43:54.458Z,81.20
2017-05-12T23:46:23.400Z,81.00
2017-05-12T23:48:52.358Z,81.70
2017-05-12T23:51:22.100Z,80.70
2017-05-12T23:53:51.048Z,80.50
2017-05-12T23:56:20.342Z,81.50
2017-05-12T23:58:49.291Z,81.10
